sensor_id;sensor_type;location;lat;lon;timestamp;P1;durP1;ratioP1;P2;durP2;ratioP2
50231;SDS011;36118;56.468;84.952;2023-04-29T00:04:03;3.95;;;1.33;;
50231;SDS011;36118;56.468;84.952;2023-04-29T00:09:06;4.20;;;1.40;;
50231;SDS011;36118;56.468;84.952;2023-04-29T00:14:09;2.15;;;1.00;;
50231;SDS011;36118;56.468;84.952;2023-04-29T00:19:12;4.18;;;0.90;;
50231;SDS011;36118;56.468;84.952;2023-04-29T00:24:14;4.13;;;1.20;;
50231;SDS011;36118;56.468;84.952;2023-04-29T00:29:17;3.40;;;0.90;;
50231;SDS011;36118;56.468;84.952;2023-04-29T00:34:20;1.95;;;0.98;;
50231;SDS011;36118;56.468;84.952;2023-04-29T00:39:23;1.73;;;0.88;;
50231;SDS011;36118;56.468;84.952;2023-04-29T00:44:26;2.00;;;0.90;;
50231;SDS011;36118;56.468;84.952;2023-04-29T00:49:29;1.92;;;0.90;;
50231;SDS011;36118;56.468;84.952;2023-04-29T00:54:33;1.90;;;0.85;;
50231;SDS011;36118;56.468;84.952;2023-04-29T00:59:36;2.50;;;0.70;;
50231;SDS011;36118;56.468;84.952;2023-04-29T01:04:40;3.05;;;1.05;;
50231;SDS011;36118;56.468;84.952;2023-04-29T01:09:52;2.10;;;1.02;;
50231;SDS011;36118;56.468;84.952;2023-04-29T01:20:18;3.30;;;0.80;;
50231;SDS011;36118;56.468;84.952;2023-04-29T01:25:22;2.85;;;1.00;;
50231;SDS011;36118;56.468;84.952;2023-04-29T01:40:46;1.88;;;0.85;;
50231;SDS011;36118;56.468;84.952;2023-04-29T01:45:56;1.75;;;0.68;;
50231;SDS011;36118;56.468;84.952;2023-04-29T01:51:00;3.22;;;1.10;;
50231;SDS011;36118;56.468;84.952;2023-04-29T01:56:04;2.47;;;1.10;;
50231;SDS011;36118;56.468;84.952;2023-04-29T02:01:23;3.80;;;1.15;;
50231;SDS011;36118;56.468;84.952;2023-04-29T02:06:26;3.83;;;1.55;;
50231;SDS011;36118;56.468;84.952;2023-04-29T02:11:33;5.30;;;2.20;;
50231;SDS011;36118;56.468;84.952;2023-04-29T02:16:36;10.05;;;2.03;;
50231;SDS011;36118;56.468;84.952;2023-04-29T02:21:41;1.97;;;0.83;;
50231;SDS011;36118;56.468;84.952;2023-04-29T02:26:44;2.85;;;1.05;;
50231;SDS011;36118;56.468;84.952;2023-04-29T02:31:47;2.20;;;1.00;;
50231;SDS011;36118;56.468;84.952;2023-04-29T02:36:50;5.65;;;1.52;;
50231;SDS011;36118;56.468;84.952;2023-04-29T02:46:58;2.13;;;0.80;;
50231;SDS011;36118;56.468;84.952;2023-04-29T02:52:01;5.88;;;0.98;;
50231;SDS011;36118;56.468;84.952;2023-04-29T02:57:04;4.38;;;1.05;;
50231;SDS011;36118;56.468;84.952;2023-04-29T03:02:07;1.50;;;0.50;;
50231;SDS011;36118;56.468;84.952;2023-04-29T03:07:10;3.83;;;0.80;;
50231;SDS011;36118;56.468;84.952;2023-04-29T03:12:13;5.47;;;1.08;;
50231;SDS011;36118;56.468;84.952;2023-04-29T03:17:20;1.77;;;0.80;;
50231;SDS011;36118;56.468;84.952;2023-04-29T03:22:23;3.42;;;1.00;;
50231;SDS011;36118;56.468;84.952;2023-04-29T03:27:26;3.22;;;0.98;;
50231;SDS011;36118;56.468;84.952;2023-04-29T03:32:29;7.47;;;1.10;;
50231;SDS011;36118;56.468;84.952;2023-04-29T03:37:33;3.58;;;1.40;;
50231;SDS011;36118;56.468;84.952;2023-04-29T03:42:50;6.10;;;1.52;;
50231;SDS011;36118;56.468;84.952;2023-04-29T03:47:54;3.03;;;1.10;;
50231;SDS011;36118;56.468;84.952;2023-04-29T03:52:57;6.90;;;1.17;;
50231;SDS011;36118;56.468;84.952;2023-04-29T03:58:00;4.18;;;1.30;;
50231;SDS011;36118;56.468;84.952;2023-04-29T04:03:04;4.05;;;1.27;;
50231;SDS011;36118;56.468;84.952;2023-04-29T04:08:09;4.40;;;0.93;;
50231;SDS011;36118;56.468;84.952;2023-04-29T04:13:28;4.00;;;0.82;;
50231;SDS011;36118;56.468;84.952;2023-04-29T04:18:31;4.63;;;0.70;;
50231;SDS011;36118;56.468;84.952;2023-04-29T04:23:35;3.30;;;1.00;;
50231;SDS011;36118;56.468;84.952;2023-04-29T04:28:39;4.57;;;0.93;;
50231;SDS011;36118;56.468;84.952;2023-04-29T04:33:47;3.50;;;1.30;;
50231;SDS011;36118;56.468;84.952;2023-04-29T04:38:50;3.15;;;0.70;;
50231;SDS011;36118;56.468;84.952;2023-04-29T04:43:53;4.47;;;1.40;;
50231;SDS011;36118;56.468;84.952;2023-04-29T04:49:29;14.27;;;1.60;;
50231;SDS011;36118;56.468;84.952;2023-04-29T04:54:33;3.42;;;0.90;;
50231;SDS011;36118;56.468;84.952;2023-04-29T04:59:51;3.60;;;1.30;;
50231;SDS011;36118;56.468;84.952;2023-04-29T05:04:55;2.55;;;1.08;;
50231;SDS011;36118;56.468;84.952;2023-04-29T05:10:04;3.15;;;1.50;;
50231;SDS011;36118;56.468;84.952;2023-04-29T05:15:17;3.85;;;1.10;;
50231;SDS011;36118;56.468;84.952;2023-04-29T05:20:24;3.47;;;1.23;;
50231;SDS011;36118;56.468;84.952;2023-04-29T05:25:29;3.88;;;1.45;;
50231;SDS011;36118;56.468;84.952;2023-04-29T05:30:33;4.22;;;1.50;;
50231;SDS011;36118;56.468;84.952;2023-04-29T05:35:36;4.70;;;0.90;;
50231;SDS011;36118;56.468;84.952;2023-04-29T05:40:39;2.40;;;0.70;;
50231;SDS011;36118;56.468;84.952;2023-04-29T05:46:02;4.00;;;1.13;;
50231;SDS011;36118;56.468;84.952;2023-04-29T05:51:05;1.55;;;0.60;;
50231;SDS011;36118;56.468;84.952;2023-04-29T05:56:08;3.58;;;0.75;;
50231;SDS011;36118;56.468;84.952;2023-04-29T06:01:13;3.47;;;1.00;;
50231;SDS011;36118;56.468;84.952;2023-04-29T06:06:16;6.80;;;1.00;;
50231;SDS011;36118;56.468;84.952;2023-04-29T06:11:55;3.78;;;1.00;;
50231;SDS011;36118;56.468;84.952;2023-04-29T06:16:58;9.30;;;1.80;;
50231;SDS011;36118;56.468;84.952;2023-04-29T06:22:02;3.43;;;1.00;;
50231;SDS011;36118;56.468;84.952;2023-04-29T06:27:06;3.10;;;0.90;;
50231;SDS011;36118;56.468;84.952;2023-04-29T06:32:09;13.93;;;1.35;;
50231;SDS011;36118;56.468;84.952;2023-04-29T06:37:12;2.95;;;1.50;;
50231;SDS011;36118;56.468;84.952;2023-04-29T06:42:33;6.00;;;2.47;;
50231;SDS011;36118;56.468;84.952;2023-04-29T06:47:59;5.13;;;1.20;;
50231;SDS011;36118;56.468;84.952;2023-04-29T06:53:22;4.80;;;1.60;;
50231;SDS011;36118;56.468;84.952;2023-04-29T06:58:25;2.85;;;1.20;;
50231;SDS011;36118;56.468;84.952;2023-04-29T07:03:29;3.38;;;1.30;;
50231;SDS011;36118;56.468;84.952;2023-04-29T07:08:32;4.13;;;1.40;;
50231;SDS011;36118;56.468;84.952;2023-04-29T07:13:36;11.85;;;1.38;;
50231;SDS011;36118;56.468;84.952;2023-04-29T07:18:39;75.20;;;4.60;;
50231;SDS011;36118;56.468;84.952;2023-04-29T07:23:43;5.18;;;1.33;;
50231;SDS011;36118;56.468;84.952;2023-04-29T07:28:47;2.15;;;0.82;;
50231;SDS011;36118;56.468;84.952;2023-04-29T07:33:51;5.70;;;1.48;;
50231;SDS011;36118;56.468;84.952;2023-04-29T07:38:55;2.80;;;1.15;;
50231;SDS011;36118;56.468;84.952;2023-04-29T07:43:58;3.95;;;1.27;;
50231;SDS011;36118;56.468;84.952;2023-04-29T07:49:02;2.67;;;1.27;;
50231;SDS011;36118;56.468;84.952;2023-04-29T07:54:07;4.30;;;1.13;;
50231;SDS011;36118;56.468;84.952;2023-04-29T07:59:10;9.60;;;1.83;;
50231;SDS011;36118;56.468;84.952;2023-04-29T08:04:14;2.80;;;1.23;;
50231;SDS011;36118;56.468;84.952;2023-04-29T08:09:24;7.40;;;2.10;;
50231;SDS011;36118;56.468;84.952;2023-04-29T08:14:28;4.28;;;1.30;;
50231;SDS011;36118;56.468;84.952;2023-04-29T08:19:32;3.50;;;1.37;;
50231;SDS011;36118;56.468;84.952;2023-04-29T08:24:36;5.80;;;1.67;;
50231;SDS011;36118;56.468;84.952;2023-04-29T08:29:40;7.10;;;1.60;;
50231;SDS011;36118;56.468;84.952;2023-04-29T08:34:46;3.92;;;1.50;;
50231;SDS011;36118;56.468;84.952;2023-04-29T08:39:50;5.38;;;2.00;;
50231;SDS011;36118;56.468;84.952;2023-04-29T08:44:53;10.25;;;1.50;;
50231;SDS011;36118;56.468;84.952;2023-04-29T08:50:03;6.50;;;1.73;;
50231;SDS011;36118;56.468;84.952;2023-04-29T08:55:07;10.02;;;3.28;;
50231;SDS011;36118;56.468;84.952;2023-04-29T09:00:10;4.55;;;1.80;;
50231;SDS011;36118;56.468;84.952;2023-04-29T09:05:14;4.40;;;1.52;;
50231;SDS011;36118;56.468;84.952;2023-04-29T09:10:18;10.10;;;2.35;;
50231;SDS011;36118;56.468;84.952;2023-04-29T09:15:21;4.72;;;1.75;;
50231;SDS011;36118;56.468;84.952;2023-04-29T09:20:25;4.68;;;1.70;;
50231;SDS011;36118;56.468;84.952;2023-04-29T09:25:28;3.33;;;1.50;;
50231;SDS011;36118;56.468;84.952;2023-04-29T09:30:32;5.35;;;1.60;;
50231;SDS011;36118;56.468;84.952;2023-04-29T09:35:47;5.45;;;2.13;;
50231;SDS011;36118;56.468;84.952;2023-04-29T09:40:50;3.42;;;1.25;;
50231;SDS011;36118;56.468;84.952;2023-04-29T09:46:02;16.85;;;2.80;;
50231;SDS011;36118;56.468;84.952;2023-04-29T09:51:05;6.10;;;2.30;;
50231;SDS011;36118;56.468;84.952;2023-04-29T09:56:08;5.15;;;1.70;;
50231;SDS011;36118;56.468;84.952;2023-04-29T10:01:11;5.88;;;1.70;;
50231;SDS011;36118;56.468;84.952;2023-04-29T10:06:15;5.57;;;1.85;;
50231;SDS011;36118;56.468;84.952;2023-04-29T10:11:19;6.18;;;1.90;;
50231;SDS011;36118;56.468;84.952;2023-04-29T10:16:29;4.32;;;1.50;;
50231;SDS011;36118;56.468;84.952;2023-04-29T10:21:34;5.00;;;1.38;;
50231;SDS011;36118;56.468;84.952;2023-04-29T10:26:37;4.40;;;1.33;;
50231;SDS011;36118;56.468;84.952;2023-04-29T10:31:41;4.72;;;1.48;;
50231;SDS011;36118;56.468;84.952;2023-04-29T10:36:45;6.78;;;1.50;;
50231;SDS011;36118;56.468;84.952;2023-04-29T10:41:48;3.38;;;1.45;;
50231;SDS011;36118;56.468;84.952;2023-04-29T10:47:17;6.45;;;1.48;;
50231;SDS011;36118;56.468;84.952;2023-04-29T10:52:22;6.43;;;1.40;;
50231;SDS011;36118;56.468;84.952;2023-04-29T10:57:25;4.15;;;1.63;;
50231;SDS011;36118;56.468;84.952;2023-04-29T11:02:28;4.32;;;1.52;;
50231;SDS011;36118;56.468;84.952;2023-04-29T11:07:31;6.47;;;1.60;;
50231;SDS011;36118;56.468;84.952;2023-04-29T11:12:34;3.22;;;1.30;;
50231;SDS011;36118;56.468;84.952;2023-04-29T11:17:37;3.78;;;1.20;;
50231;SDS011;36118;56.468;84.952;2023-04-29T11:22:40;5.72;;;1.38;;
50231;SDS011;36118;56.468;84.952;2023-04-29T11:27:44;9.02;;;1.75;;
50231;SDS011;36118;56.468;84.952;2023-04-29T11:32:49;3.42;;;1.40;;
50231;SDS011;36118;56.468;84.952;2023-04-29T11:37:53;5.57;;;0.98;;
50231;SDS011;36118;56.468;84.952;2023-04-29T11:42:56;5.70;;;1.00;;
50231;SDS011;36118;56.468;84.952;2023-04-29T11:47:59;2.45;;;0.98;;
50231;SDS011;36118;56.468;84.952;2023-04-29T11:53:03;2.58;;;1.02;;
50231;SDS011;36118;56.468;84.952;2023-04-29T11:58:07;3.30;;;0.88;;
50231;SDS011;36118;56.468;84.952;2023-04-29T12:03:14;4.57;;;1.30;;
50231;SDS011;36118;56.468;84.952;2023-04-29T12:08:19;3.42;;;1.52;;
50231;SDS011;36118;56.468;84.952;2023-04-29T12:13:29;3.83;;;1.45;;
50231;SDS011;36118;56.468;84.952;2023-04-29T12:18:32;5.05;;;1.70;;
50231;SDS011;36118;56.468;84.952;2023-04-29T12:23:36;4.00;;;1.40;;
50231;SDS011;36118;56.468;84.952;2023-04-29T12:28:41;4.50;;;1.80;;
50231;SDS011;36118;56.468;84.952;2023-04-29T12:33:44;5.15;;;1.60;;
50231;SDS011;36118;56.468;84.952;2023-04-29T12:38:47;4.65;;;1.25;;
50231;SDS011;36118;56.468;84.952;2023-04-29T12:43:50;4.88;;;1.92;;
50231;SDS011;36118;56.468;84.952;2023-04-29T12:48:53;5.07;;;1.67;;
50231;SDS011;36118;56.468;84.952;2023-04-29T12:53:59;9.27;;;2.15;;
50231;SDS011;36118;56.468;84.952;2023-04-29T12:59:09;2.05;;;0.95;;
50231;SDS011;36118;56.468;84.952;2023-04-29T13:04:13;3.42;;;1.50;;
50231;SDS011;36118;56.468;84.952;2023-04-29T13:09:16;4.28;;;1.10;;
50231;SDS011;36118;56.468;84.952;2023-04-29T13:14:20;5.28;;;1.50;;
50231;SDS011;36118;56.468;84.952;2023-04-29T13:19:23;6.63;;;1.65;;
50231;SDS011;36118;56.468;84.952;2023-04-29T13:24:46;8.13;;;2.25;;
50231;SDS011;36118;56.468;84.952;2023-04-29T13:29:49;7.90;;;2.70;;
50231;SDS011;36118;56.468;84.952;2023-04-29T13:34:52;5.45;;;1.90;;
50231;SDS011;36118;56.468;84.952;2023-04-29T13:39:56;4.25;;;1.60;;
50231;SDS011;36118;56.468;84.952;2023-04-29T13:44:59;5.20;;;1.70;;
50231;SDS011;36118;56.468;84.952;2023-04-29T13:50:05;5.93;;;1.67;;
50231;SDS011;36118;56.468;84.952;2023-04-29T13:55:11;6.13;;;1.98;;
50231;SDS011;36118;56.468;84.952;2023-04-29T14:00:17;9.15;;;2.30;;
50231;SDS011;36118;56.468;84.952;2023-04-29T14:05:40;8.48;;;2.95;;
50231;SDS011;36118;56.468;84.952;2023-04-29T14:10:43;6.68;;;3.20;;
50231;SDS011;36118;56.468;84.952;2023-04-29T14:15:46;11.88;;;4.20;;
50231;SDS011;36118;56.468;84.952;2023-04-29T14:20:49;14.52;;;5.75;;
50231;SDS011;36118;56.468;84.952;2023-04-29T14:25:52;24.42;;;7.80;;
50231;SDS011;36118;56.468;84.952;2023-04-29T14:31:07;17.38;;;6.65;;
50231;SDS011;36118;56.468;84.952;2023-04-29T14:36:10;17.63;;;6.72;;
50231;SDS011;36118;56.468;84.952;2023-04-29T14:41:13;21.95;;;8.88;;
50231;SDS011;36118;56.468;84.952;2023-04-29T14:46:16;16.40;;;6.75;;
50231;SDS011;36118;56.468;84.952;2023-04-29T14:51:19;22.70;;;8.50;;
50231;SDS011;36118;56.468;84.952;2023-04-29T14:56:22;17.63;;;6.93;;
50231;SDS011;36118;56.468;84.952;2023-04-29T15:01:25;16.85;;;7.05;;
50231;SDS011;36118;56.468;84.952;2023-04-29T15:06:32;16.52;;;6.03;;
50231;SDS011;36118;56.468;84.952;2023-04-29T15:11:35;16.00;;;5.32;;
50231;SDS011;36118;56.468;84.952;2023-04-29T15:16:38;14.27;;;5.47;;
50231;SDS011;36118;56.468;84.952;2023-04-29T15:21:40;7.90;;;3.10;;
50231;SDS011;36118;56.468;84.952;2023-04-29T15:26:43;9.10;;;4.22;;
50231;SDS011;36118;56.468;84.952;2023-04-29T15:31:47;11.25;;;4.85;;
50231;SDS011;36118;56.468;84.952;2023-04-29T15:36:50;10.55;;;4.13;;
50231;SDS011;36118;56.468;84.952;2023-04-29T15:41:53;7.60;;;3.10;;
50231;SDS011;36118;56.468;84.952;2023-04-29T15:46:56;8.13;;;3.33;;
50231;SDS011;36118;56.468;84.952;2023-04-29T15:51:59;13.07;;;4.28;;
50231;SDS011;36118;56.468;84.952;2023-04-29T15:57:02;7.13;;;3.35;;
50231;SDS011;36118;56.468;84.952;2023-04-29T16:02:05;9.00;;;3.15;;
50231;SDS011;36118;56.468;84.952;2023-04-29T16:07:12;6.00;;;2.72;;
50231;SDS011;36118;56.468;84.952;2023-04-29T16:12:15;5.57;;;2.42;;
50231;SDS011;36118;56.468;84.952;2023-04-29T16:17:18;8.20;;;2.30;;
50231;SDS011;36118;56.468;84.952;2023-04-29T16:22:21;11.07;;;2.88;;
50231;SDS011;36118;56.468;84.952;2023-04-29T16:27:24;8.30;;;2.60;;
50231;SDS011;36118;56.468;84.952;2023-04-29T16:32:31;7.97;;;2.40;;
50231;SDS011;36118;56.468;84.952;2023-04-29T16:37:34;7.40;;;2.38;;
50231;SDS011;36118;56.468;84.952;2023-04-29T16:42:37;7.65;;;2.75;;
50231;SDS011;36118;56.468;84.952;2023-04-29T16:47:40;10.30;;;3.38;;
50231;SDS011;36118;56.468;84.952;2023-04-29T16:52:43;18.38;;;6.25;;
50231;SDS011;36118;56.468;84.952;2023-04-29T16:57:46;18.00;;;5.95;;
50231;SDS011;36118;56.468;84.952;2023-04-29T17:02:49;23.80;;;7.40;;
50231;SDS011;36118;56.468;84.952;2023-04-29T17:07:52;19.98;;;6.75;;
50231;SDS011;36118;56.468;84.952;2023-04-29T17:12:56;23.70;;;6.63;;
50231;SDS011;36118;56.468;84.952;2023-04-29T17:17:58;12.50;;;5.32;;
50231;SDS011;36118;56.468;84.952;2023-04-29T17:23:02;12.40;;;3.95;;
50231;SDS011;36118;56.468;84.952;2023-04-29T17:28:05;6.95;;;3.20;;
50231;SDS011;36118;56.468;84.952;2023-04-29T17:33:08;8.07;;;3.03;;
50231;SDS011;36118;56.468;84.952;2023-04-29T17:38:11;5.85;;;2.03;;
50231;SDS011;36118;56.468;84.952;2023-04-29T17:43:13;4.95;;;1.90;;
50231;SDS011;36118;56.468;84.952;2023-04-29T17:48:16;5.90;;;2.15;;
50231;SDS011;36118;56.468;84.952;2023-04-29T17:53:20;6.70;;;2.30;;
50231;SDS011;36118;56.468;84.952;2023-04-29T17:58:23;6.95;;;2.42;;
50231;SDS011;36118;56.468;84.952;2023-04-29T18:03:26;9.43;;;2.40;;
50231;SDS011;36118;56.468;84.952;2023-04-29T18:13:34;30.75;;;15.55;;
50231;SDS011;36118;56.468;84.952;2023-04-29T18:18:37;7.43;;;2.88;;
50231;SDS011;36118;56.468;84.952;2023-04-29T18:23:40;12.85;;;3.50;;
50231;SDS011;36118;56.468;84.952;2023-04-29T18:28:43;8.68;;;3.42;;
50231;SDS011;36118;56.468;84.952;2023-04-29T18:33:47;8.87;;;3.30;;
50231;SDS011;36118;56.468;84.952;2023-04-29T18:38:50;9.80;;;3.72;;
50231;SDS011;36118;56.468;84.952;2023-04-29T18:43:53;10.15;;;3.67;;
50231;SDS011;36118;56.468;84.952;2023-04-29T18:48:56;17.30;;;6.50;;
50231;SDS011;36118;56.468;84.952;2023-04-29T18:53:58;8.60;;;3.67;;
50231;SDS011;36118;56.468;84.952;2023-04-29T18:59:01;18.23;;;5.82;;
50231;SDS011;36118;56.468;84.952;2023-04-29T19:04:05;7.38;;;3.45;;
50231;SDS011;36118;56.468;84.952;2023-04-29T19:09:10;9.50;;;3.25;;
50231;SDS011;36118;56.468;84.952;2023-04-29T19:14:14;12.18;;;4.03;;
50231;SDS011;36118;56.468;84.952;2023-04-29T19:19:17;6.95;;;2.70;;
50231;SDS011;36118;56.468;84.952;2023-04-29T19:24:20;4.30;;;2.33;;
50231;SDS011;36118;56.468;84.952;2023-04-29T19:29:23;7.55;;;2.45;;
50231;SDS011;36118;56.468;84.952;2023-04-29T19:34:26;4.85;;;2.20;;
50231;SDS011;36118;56.468;84.952;2023-04-29T19:39:29;4.90;;;1.90;;
50231;SDS011;36118;56.468;84.952;2023-04-29T19:44:31;3.42;;;2.15;;
50231;SDS011;36118;56.468;84.952;2023-04-29T19:49:35;5.07;;;2.50;;
50231;SDS011;36118;56.468;84.952;2023-04-29T19:54:38;4.25;;;2.10;;
50231;SDS011;36118;56.468;84.952;2023-04-29T19:59:42;4.72;;;2.30;;
50231;SDS011;36118;56.468;84.952;2023-04-29T20:04:44;6.13;;;2.58;;
50231;SDS011;36118;56.468;84.952;2023-04-29T20:09:47;7.72;;;2.67;;
50231;SDS011;36118;56.468;84.952;2023-04-29T20:14:50;6.35;;;2.15;;
50231;SDS011;36118;56.468;84.952;2023-04-29T20:19:53;6.03;;;2.47;;
50231;SDS011;36118;56.468;84.952;2023-04-29T20:24:57;4.82;;;2.55;;
50231;SDS011;36118;56.468;84.952;2023-04-29T20:29:59;5.57;;;2.50;;
50231;SDS011;36118;56.468;84.952;2023-04-29T20:35:04;4.55;;;2.65;;
50231;SDS011;36118;56.468;84.952;2023-04-29T20:40:07;5.40;;;2.83;;
50231;SDS011;36118;56.468;84.952;2023-04-29T20:45:11;4.63;;;2.45;;
50231;SDS011;36118;56.468;84.952;2023-04-29T20:50:14;6.82;;;2.55;;
50231;SDS011;36118;56.468;84.952;2023-04-29T20:55:17;4.03;;;2.00;;
50231;SDS011;36118;56.468;84.952;2023-04-29T21:00:21;5.17;;;2.40;;
50231;SDS011;36118;56.468;84.952;2023-04-29T21:05:24;4.45;;;2.30;;
50231;SDS011;36118;56.468;84.952;2023-04-29T21:10:27;3.70;;;1.77;;
50231;SDS011;36118;56.468;84.952;2023-04-29T21:15:30;5.40;;;2.50;;
50231;SDS011;36118;56.468;84.952;2023-04-29T21:20:33;4.75;;;2.58;;
50231;SDS011;36118;56.468;84.952;2023-04-29T21:25:37;4.97;;;2.30;;
50231;SDS011;36118;56.468;84.952;2023-04-29T21:30:39;5.45;;;2.72;;
50231;SDS011;36118;56.468;84.952;2023-04-29T21:35:42;4.38;;;2.55;;
50231;SDS011;36118;56.468;84.952;2023-04-29T21:40:51;4.30;;;2.58;;
50231;SDS011;36118;56.468;84.952;2023-04-29T21:45:54;4.43;;;2.70;;
50231;SDS011;36118;56.468;84.952;2023-04-29T21:50:57;6.03;;;3.40;;
50231;SDS011;36118;56.468;84.952;2023-04-29T21:56:01;5.47;;;2.55;;
50231;SDS011;36118;56.468;84.952;2023-04-29T22:01:03;5.55;;;3.10;;
50231;SDS011;36118;56.468;84.952;2023-04-29T22:06:26;7.13;;;2.80;;
50231;SDS011;36118;56.468;84.952;2023-04-29T22:11:29;4.15;;;2.50;;
50231;SDS011;36118;56.468;84.952;2023-04-29T22:16:32;4.72;;;2.38;;
50231;SDS011;36118;56.468;84.952;2023-04-29T22:21:37;4.18;;;2.08;;
50231;SDS011;36118;56.468;84.952;2023-04-29T22:31:44;5.03;;;2.55;;
50231;SDS011;36118;56.468;84.952;2023-04-29T22:36:47;4.32;;;2.33;;
50231;SDS011;36118;56.468;84.952;2023-04-29T22:41:50;3.63;;;1.75;;
50231;SDS011;36118;56.468;84.952;2023-04-29T22:46:53;3.90;;;1.95;;
50231;SDS011;36118;56.468;84.952;2023-04-29T22:51:56;4.55;;;2.53;;
50231;SDS011;36118;56.468;84.952;2023-04-29T22:56:58;4.57;;;2.80;;
50231;SDS011;36118;56.468;84.952;2023-04-29T23:02:01;4.70;;;2.60;;
50231;SDS011;36118;56.468;84.952;2023-04-29T23:07:04;5.35;;;2.97;;
50231;SDS011;36118;56.468;84.952;2023-04-29T23:12:07;6.72;;;3.33;;
50231;SDS011;36118;56.468;84.952;2023-04-29T23:17:10;5.85;;;2.60;;
50231;SDS011;36118;56.468;84.952;2023-04-29T23:22:13;8.43;;;4.00;;
50231;SDS011;36118;56.468;84.952;2023-04-29T23:27:18;7.55;;;3.05;;
50231;SDS011;36118;56.468;84.952;2023-04-29T23:32:21;4.60;;;2.95;;
50231;SDS011;36118;56.468;84.952;2023-04-29T23:37:25;10.63;;;4.38;;
50231;SDS011;36118;56.468;84.952;2023-04-29T23:42:28;11.30;;;6.15;;
50231;SDS011;36118;56.468;84.952;2023-04-29T23:47:31;12.73;;;5.57;;
50231;SDS011;36118;56.468;84.952;2023-04-29T23:52:34;9.63;;;4.88;;
50231;SDS011;36118;56.468;84.952;2023-04-29T23:57:37;7.32;;;3.40;;
